Nearby METAR Reports

This page may be slow to load as it queries the National Weather Service for data.

KBIS - Bismarck, North Dakota, USA
Distance from station: S 10mi, 15km
Updated: Thu, 21-Nov-2019 10:52am CST
Clear
Clear
 Wind from NNW
Wind: NNW 9 mph , 15 km/h
Temperature: 27°F , -3°C
Wind Chill: 18°F , -8°C
Dew Point: 18°F , -8°C
Humidity: 69%
Barometer: 30.22 inHg , 1023.4 hPa
Clouds: Clear
Visibility: 10 miles , 16 km
2019/11/21 16:52 KBIS 211652Z 33008KT 10SM CLR M03/M08 A3022 RMK AO2 SLP260 T10331078
KDIK - Dickinson, North Dakota, USA
Distance from station: W 95mi, 154km
Updated: Thu, 21-Nov-2019 10:56am CST
Clear
Clear
 Wind from WNW
Wind: WNW 12 mph , 19 km/h
Temperature: 28°F , -2°C
Wind Chill: 18°F , -8°C
Dew Point: 18°F , -8°C
Humidity: 64%
Barometer: 30.18 inHg , 1022 hPa
Clouds: Clear
Visibility: 10 miles , 16 km
2019/11/21 16:56 KDIK 211656Z AUTO 29010KT 10SM CLR M02/M08 A3018 RMK AO2 SLP255 T10221078
 
KISN - Williston, North Dakota, USA
Distance from station: NNW 2mi, 2km
Updated: Fri, 18-Oct-2019 8:53am CDT
NOT Current

 
2019/10/18 13:53 KISN 181353Z AUTO RMK AO2 SLPNO PWINO FZRANO TSNO PNO $
KFAR - Fargo, North Dakota, USA
Distance from station: NNW 4mi, 7km
Updated: Thu, 21-Nov-2019 10:53am CST
Light snow, Overcast
Light snow, Overcast
 Wind from NNW
Wind: NNW 20 mph , 31 km/h
Temperature: 18°F , -8°C
Wind Chill: 2°F , -17°C
Dew Point: 12°F , -11°C
Humidity: 79%
Barometer: 30.18 inHg , 1022 hPa
Summary: Light Snow
Clouds: Overcast
Visibility: 3 miles , 5 km
Cloud details: Overcast 1700 ft
2019/11/21 16:53 KFAR 211653Z 34017KT 3SM -SN OVC017 M08/M11 A3018 RMK AO2 SLP234 P0000 T10781106
 
KGFK - Grand Forks, North Dakota, USA
Distance from station: NNW 76mi, 123km
Updated: Thu, 21-Nov-2019 10:53am CST
Light snow, Overcast
Light snow, Overcast
 Wind from N
Wind: N 15 mph , 24 km/h
Temperature: 14°F , -10°C
Wind Chill: -1°F , -18°C
Dew Point: 9°F , -13°C
Humidity: 79%
Barometer: 30.20 inHg , 1022.7 hPa
Summary: Light Snow
Clouds: Overcast
Visibility: 3 miles , 5 km
Cloud details: Overcast 1900 ft
2019/11/21 16:53 KGFK 211653Z 35013KT 3SM -SN OVC019 M10/M13 A3020 RMK AO2 SLP246 P0000 T11001133 $
KMOT - Minot, North Dakota, USA
Distance from station: E 109mi, 175km
Updated: Thu, 21-Nov-2019 10:54am CST
Clear
Clear
 Wind from W
Wind: W 7 mph , 11 km/h
Temperature: 21°F , -6°C
Wind Chill: 12°F , -11°C
Dew Point: 16°F , -9°C
Humidity: 80%
Barometer: 30.18 inHg , 1022 hPa
Clouds: Clear
Visibility: 10 miles , 16 km
2019/11/21 16:54 KMOT 211654Z 28006KT 10SM CLR M06/M09 A3018 RMK AO2 SLP251 T10611094